createdAt,value
2017-12-09T00:16:22.612Z,78.0
2017-12-09T00:32:55.933Z,78.4
2017-12-09T00:49:29.347Z,78.0
2017-12-09T01:06:02.667Z,78.0
2017-12-09T01:22:36.021Z,78.4
2017-12-09T01:39:09.374Z,78.4
2017-12-09T01:55:42.923Z,78.0
2017-12-09T02:12:16.544Z,78.0
2017-12-09T02:28:50.100Z,78.0
2017-12-09T02:45:23.580Z,78.0
2017-12-09T03:01:57.080Z,78.0
2017-12-09T03:18:30.557Z,77.6
2017-12-09T03:35:04.180Z,77.2
2017-12-09T03:51:37.777Z,77.6
2017-12-09T04:08:11.303Z,77.2
2017-12-09T04:24:44.938Z,77.2
2017-12-09T04:41:18.493Z,77.2
2017-12-09T04:57:52.056Z,76.4
2017-12-09T05:14:25.548Z,76.4
2017-12-09T05:30:59.123Z,76.8
2017-12-09T05:47:32.670Z,76.8
2017-12-09T06:04:06.106Z,77.2
2017-12-09T06:20:39.369Z,77.6
2017-12-09T06:37:12.674Z,77.6
2017-12-09T07:10:19.048Z,78.4
2017-12-09T07:26:52.920Z,78.8
2017-12-09T07:43:25.607Z,78.4
2017-12-09T07:59:58.954Z,78.4
2017-12-09T08:16:32.368Z,78.4
2017-12-09T08:33:05.796Z,78.4
2017-12-09T08:49:39.298Z,78.4
2017-12-09T09:06:12.877Z,78.8
2017-12-09T09:22:46.476Z,78.8
2017-12-09T09:39:20.802Z,78.8
2017-12-09T09:55:53.847Z,78.8
2017-12-09T10:12:27.776Z,78.8
2017-12-09T10:29:01.763Z,78.8
2017-12-09T10:45:35.749Z,78.8
2017-12-09T11:02:09.781Z,78.8
2017-12-09T11:18:43.759Z,79.2
2017-12-09T11:35:18.275Z,79.2
2017-12-09T11:51:52.783Z,79.2
2017-12-09T12:08:27.415Z,79.2
2017-12-09T12:25:03.091Z,79.2
2017-12-09T12:41:36.543Z,79.2
2017-12-09T12:58:11.044Z,79.2
2017-12-09T13:14:45.661Z,79.2
2017-12-09T13:31:20.208Z,79.2
2017-12-09T13:47:54.837Z,79.2
2017-12-09T14:04:29.279Z,79.2
2017-12-09T14:21:04.207Z,79.2
2017-12-09T14:37:38.548Z,79.2
2017-12-09T14:54:13.198Z,78.8
2017-12-09T15:10:47.413Z,79.2
2017-12-09T15:27:21.841Z,79.2
2017-12-09T15:43:57.721Z,79.2
2017-12-09T16:00:30.422Z,79.2
2017-12-09T16:17:04.588Z,79.2
2017-12-09T16:33:38.731Z,79.6
2017-12-09T16:50:13.007Z,79.6
2017-12-09T17:06:47.264Z,79.6
2017-12-09T17:23:23.202Z,79.6
2017-12-09T17:39:55.653Z,79.6
2017-12-09T17:56:28.345Z,79.6
2017-12-09T18:29:35.321Z,79.6
2017-12-09T18:46:08.976Z,79.2
2017-12-09T19:02:42.672Z,78.8
2017-12-09T19:19:16.305Z,78.8
2017-12-09T19:35:50.042Z,78.8
2017-12-09T19:52:23.341Z,78.4
2017-12-09T20:08:56.834Z,78.0
2017-12-09T20:25:30.374Z,78.0
2017-12-09T20:42:03.696Z,77.6
2017-12-09T20:58:38.266Z,78.0
2017-12-09T21:15:10.197Z,78.0
2017-12-09T21:31:43.703Z,78.4
2017-12-09T21:48:17.351Z,77.2
2017-12-09T22:04:50.758Z,78.4
2017-12-09T22:21:24.246Z,78.0
2017-12-09T22:37:57.777Z,78.0
2017-12-09T22:54:31.393Z,78.4
2017-12-09T23:11:05.004Z,77.6
2017-12-09T23:27:38.651Z,77.6
2017-12-09T23:44:12.418Z,77.6
